ADDS METAR Data INFO
IDs: Format: Raw Decoded Include TAF

Data at: 1014 UTC 12 Dec 2017

PABE 120953Z 35005KT 10SM BKN044 OVC060 M03/M04 A2934 RMK AO2 UPB17E29 SLP937 P0000 T10281039
PABE 120853Z COR 02004KT 10SM OVC055 M05/M06 A2935 RMK AO2 SLP941 I3000 T10501056 410061061 50000 TSNO
PABE 120753Z 02006KT 10SM FEW080 M06/M07 A2935 RMK AO2 SLP942 I1000 T10611067
PABE 120653Z 02005KT 10SM SCT080 M06/M06 A2935 RMK AO2 SLP942 I1000 T10611061
PABE 120553Z 05005KT 10SM BKN070 M05/M06 A2935 RMK AO2 SLP941 60000 T10501056 11033 21050 51013
PABE 120453Z 07005KT 10SM OVC040 M05/M06 A2934 RMK AO2 SLP939 T10501056
PABE 120353Z 07003KT 10SM FEW065 OVC120 M04/M05 A2932 RMK AO2 SNB0259E15 SLP931 P0000 T10391050
PABE 120259Z 11004KT 9SM -SN OVC050 M04/M05 A2932 RMK AO2 SNB59 P0000 T10391050
PABE 120253Z 11003KT 10SM BKN019 OVC042 M04/M05 A2931 RMK AO2 SNB0154E16 SLP928 P0000 60000 T10391050 53027
PABE 120153Z 14003KT 5SM BR BKN019 OVC070 M04/M06 A2928 RMK AO2 SLP919 T10441056
PABE 120100Z 13005KT 10SM BKN055 BKN075 M04/M06 A2926 RMK AO2 T10441056
PABE 120053Z 13005KT 10SM OVC020 M04/M06 A2926 RMK AO2 SLP909 T10441056
PABE 112353Z 13004KT 10SM OVC018 M03/M04 A2923 RMK AO2 SLP901 60000 T10331044 11033 21050 53028
PABE 112328Z 08003KT 10SM BKN021 OVC035 M04/M05 A2922 RMK AO2 T10391050
PABE 112253Z 01006KT 9SM FEW027 BKN040 OVC100 M04/M06 A2920 RMK AO2 SNB33E50 SLP889 P0000 T10441056
PABE 112153Z 02005KT 10SM FEW036 OVC060 M04/M05 A2918 RMK AO2 SLP882 T10441050
PABE 112053Z 35007KT 10SM BKN030 OVC036 M04/M05 A2915 RMK AO2 SLP873 T10391050 51025
PABE 112049Z 35008KT 10SM BKN028 OVC037 M04/M05 A2915 RMK AO2
PABE 111953Z 35007KT 10SM OVC035 M04/M06 A2912 RMK AO2 SLP863 T10441056
PABE 111853Z 36007KT 10SM BKN036 OVC048 M04/M06 A2907 RMK AO2 SLP847 T10441056
PABE 111753Z 36012KT 10SM OVC048 M03/M05 A2904 RMK AO2 SLP837 T10331050 11033 21050 51027
PABE 111653Z 36011KT 10SM OVC050 M03/M04 A2902 RMK AO2 SLP831 T10331044
PABE 111553Z 02016KT 10SM OVC050 M03/M04 A2899 RMK AO2 SLP819 T10331044
PABE 111540Z 01013KT 10SM FEW010 OVC050 M03/M04 A2898 RMK AO2 T10331044
PABE 111521Z AUTO 01016KT 10SM SCT010 OVC050 M03/M04 A2898 RMK AO2 T10331044 TSNO
PABE 111453Z AUTO 36015KT 10SM BKN009 OVC050 M03/M05 A2896 RMK AO2 SLP810 T10331050 55003 TSNO
PABE 111415Z AUTO 36015KT 10SM BKN009 OVC055 M04/M05 A2896 RMK AO2 T10391050 TSNO
PABE 111353Z AUTO 34013KT 10SM OVC060 M04/M06 A2896 RMK AO2 SLP807 T10441056 TSNO
PABE 111253Z 36011KT 10SM OVC055 M04/M06 A2896 RMK AO2 SLP809 T10441056
PABE 111153Z 01013KT 10SM FEW036 OVC110 M04/M06 A2897 RMK AO2 SLP813 60001 70001 T10441056 11006 21044 56022
PABE 111053Z 02015KT 10SM SCT080 OVC100 M04/M05 A2899 RMK AO2 SLP818 T10391050
PABE 110953Z 02014KT 10SM SCT065 OVC080 M03/M04 A2902 RMK AO2 SLP828 P0001 T10331044
PABE 110853Z 02011KT 10SM OVC034 M01/M02 A2904 RMK AO2 UPB39E43SNB23E39 SLP835 P0000 60000 T10111017 410111083 56031
PABE 110753Z 02014KT 10SM CLR M04/M05 A2907 RMK AO2 SLP846 T10391050
PABE 110653Z 02012KT 10SM CLR M04/M05 A2909 RMK AO2 SLP854 T10391050
PABE 110553Z 01011KT 10SM CLR M04/M06 A2913 RMK AO2 SLP867 60000 T10441056 11044 21078 58039
PABE 110453Z 35008KT 10SM SCT120 M06/M07 A2917 RMK AO2 SLP881 T10561067
PABE 110353Z 01007KT 10SM BKN055 OVC075 M06/M07 A2922 RMK AO2 SNE03 SLP896 P0000 T10561067
PABE 110253Z 01007KT 4SM -SN BR BKN036 OVC055 M06/M08 A2925 RMK AO2 SNB32 SLP906 P0000 60000 T10611078 58023
PABE 110153Z 36007KT 10SM BKN050 OVC070 M07/M08 A2928 RMK AO2 SLP916 T10671083
PABE 110053Z COR 01008KT 10SM OVC060 M08/M09 A2930 RMK AO2 SLP923 T10781089 TSNO
PABE 102353Z 02009KT 10SM BKN110 M08/M09 A2932 RMK AO2 SLP930 T10781089 11067 21078 58021
PABE 102253Z 02009KT 10SM BKN110 M08/M09 A2934 RMK AO2 SLP937 T10781089
PABE 102239Z 02009KT 10SM OVC100 M08/M09 A2934 RMK AO2 T10781089